Time;durP1;ratioP1;P1;durP2;ratioP2;P2;SDS_P1;SDS_P2;PMS_P1;PMS_P2;Temp;Humidity;BMP_temperature;BMP_pressure;BME280_temperature;BME280_humidity;BME280_pressure;Samples;Min_cycle;Max_cycle;Signal;HPM_P1;HPM_P2
2023/03/08 00:01:23;;;;;;;20.80;11.52;;;;;;;0.24;100.00;100018.03;4987374;28;20046;-67
2023/03/08 00:03:52;;;;;;;19.48;11.82;;;;;;;0.19;100.00;100013.16;4981813;28;20057;-66
2023/03/08 00:06:19;;;;;;;;;;;;;;;0.22;100.00;100025.03;4988613;28;20050;-66
2023/03/08 00:08:47;;;;;;;21.15;11.68;;;;;;;0.15;100.00;100026.34;4975375;28;20361;-66
2023/03/08 00:11:14;;;;;;;18.48;12.90;;;;;;;0.18;100.00;100024.41;4983190;28;20125;-67
2023/03/08 00:13:40;;;;;;;17.92;12.32;;;;;;;0.21;100.00;100014.81;4986301;28;20060;-68
2023/03/08 00:16:10;;;;;;;17.83;11.95;;;;;;;0.23;100.00;100018.13;4983476;28;20455;-68
2023/03/08 00:18:37;;;;;;;17.50;12.52;;;;;;;0.22;100.00;100014.72;4994411;28;20124;-68
2023/03/08 00:21:09;;;;;;;23.02;12.70;;;;;;;0.29;100.00;100015.94;4988329;28;20050;-67
2023/03/08 00:23:36;;;;;;;17.80;13.07;;;;;;;0.29;100.00;100023.69;4986703;28;20080;-67
2023/03/08 00:26:03;;;;;;;17.80;11.65;;;;;;;0.29;100.00;100025.44;4985863;28;20055;-67
2023/03/08 00:28:30;;;;;;;19.73;13.02;;;;;;;0.28;100.00;100024.63;5002653;28;20491;-67
2023/03/08 00:31:03;;;;;;;19.50;12.63;;;;;;;0.32;100.00;100027.84;4987011;28;20043;-68
2023/03/08 00:33:31;;;;;;;16.52;11.95;;;;;;;0.26;100.00;100025.66;4980362;28;20066;-67
2023/03/08 00:36:06;;;;;;;20.58;13.38;;;;;;;0.28;100.00;100034.94;4990028;28;20061;-69
2023/03/08 00:38:35;;;;;;;20.38;13.73;;;;;;;0.22;100.00;100034.50;4977200;28;20085;-68
2023/03/08 00:41:02;;;;;;;18.20;12.13;;;;;;;0.26;100.00;100025.66;4978736;28;20057;-68
2023/03/08 00:43:29;;;;;;;17.38;12.55;;;;;;;0.25;100.00;100018.84;4981931;28;20054;-68
2023/03/08 00:45:56;;;;;;;21.00;13.25;;;;;;;0.26;100.00;100020.50;4986271;28;20736;-69
2023/03/08 00:48:23;;;;;;;21.15;13.23;;;;;;;0.27;100.00;100011.84;4987893;28;20389;-68
2023/03/08 00:50:50;;;;;;;21.08;12.80;;;;;;;0.22;100.00;100017.31;4979006;28;20046;-68
2023/03/08 00:53:16;;;;;;;19.80;13.48;;;;;;;0.27;100.00;100017.00;4986898;28;20531;-67
2023/03/08 00:55:49;;;;;;;17.55;12.00;;;;;;;0.32;100.00;100015.75;4986448;28;20054;-67
2023/03/08 00:58:16;;;;;;;16.98;11.80;;;;;;;0.30;100.00;100007.31;4988028;28;20054;-67
2023/03/08 01:00:42;;;;;;;18.58;12.05;;;;;;;0.29;100.00;100013.38;4981636;28;20616;-67
2023/03/08 01:03:09;;;;;;;15.63;11.63;;;;;;;0.32;100.00;100012.38;4990548;28;20084;-67
2023/03/08 01:05:47;;;;;;;15.63;11.25;;;;;;;0.36;100.00;100003.50;4982493;28;20050;-68
2023/03/08 01:08:15;;;;;;;17.50;12.00;;;;;;;0.31;100.00;100001.19;4980589;28;20050;-67
2023/03/08 01:10:58;;;;;;;18.23;12.10;;;;;;;0.29;100.00;99997.91;4992349;28;20052;-67
2023/03/08 01:13:27;;;;;;;18.60;12.48;;;;;;;0.28;100.00;99998.03;4980998;28;20054;-66
2023/03/08 01:15:54;;;;;;;17.50;11.18;;;;;;;0.26;100.00;99992.13;4994111;28;20062;-66
2023/03/08 01:18:21;;;;;;;18.83;12.43;;;;;;;0.25;100.00;99986.13;4986829;28;20054;-67
2023/03/08 01:20:59;;;;;;;19.02;11.80;;;;;;;0.28;100.00;99980.78;4991665;28;20054;-66
2023/03/08 01:23:25;;;;;;;15.60;11.75;;;;;;;0.24;100.00;99975.94;4985784;28;20050;-66
2023/03/08 01:26:03;;;;;;;19.38;13.02;;;;;;;0.19;100.00;99971.06;4992389;28;20050;-66
2023/03/08 01:28:30;;;;;;;19.63;11.73;;;;;;;0.17;100.00;99983.22;4997805;28;20069;-67
2023/03/08 01:31:12;;;;;;;18.08;12.65;;;;;;;0.20;100.00;99975.31;4989922;28;20042;-67
2023/03/08 01:33:39;;;;;;;16.75;12.07;;;;;;;0.19;100.00;99973.63;4983047;28;20051;-67
2023/03/08 01:36:08;;;;;;;16.10;11.73;;;;;;;0.21;100.00;99970.97;4988895;28;20045;-67
2023/03/08 01:38:34;;;;;;;;;;;;;;;0.22;100.00;99972.59;5000790;28;20113;-67
2023/03/08 01:41:02;;;;;;;15.55;11.15;;;;;;;0.19;100.00;99971.88;4987438;28;19980;-66
2023/03/08 01:43:32;;;;;;;15.23;11.45;;;;;;;0.15;100.00;99959.28;4997223;28;20054;-66
2023/03/08 01:46:01;;;;;;;17.23;11.25;;;;;;;0.15;100.00;99959.28;4982614;28;20774;-66
2023/03/08 01:48:33;;;;;;;18.63;12.95;;;;;;;0.14;100.00;99962.81;4986836;28;20065;-67
2023/03/08 01:51:01;;;;;;;16.58;11.05;;;;;;;0.14;100.00;99948.16;5003099;28;20056;-66
2023/03/08 01:53:28;;;;;;;18.25;12.02;;;;;;;0.14;100.00;99947.34;4987854;28;20058;-66
2023/03/08 01:55:55;;;;;;;15.27;10.82;;;;;;;0.13;100.00;99948.25;4984357;28;20061;-66
2023/03/08 01:58:22;;;;;;;18.42;11.30;;;;;;;0.10;100.00;99938.97;4983475;28;20430;-67
2023/03/08 02:00:48;;;;;;;15.70;11.05;;;;;;;0.05;100.00;99938.44;4980085;28;20077;-68
2023/03/08 02:03:15;;;;;;;15.40;10.27;;;;;;;0.02;100.00;99937.81;4981492;28;20506;-69
2023/03/08 02:05:43;;;;;;;16.67;10.63;;;;;;;0.00;100.00;99930.19;4997280;28;20073;-69
2023/03/08 02:08:09;;;;;;;13.82;10.20;;;;;;;0.00;100.00;99937.94;4995567;28;20058;-68
2023/03/08 02:10:37;;;;;;;15.48;11.90;;;;;;;-0.03;100.00;99931.19;4994950;28;20064;-69
2023/03/08 02:13:06;;;;;;;18.58;11.10;;;;;;;-0.04;100.00;99926.13;4987056;28;20085;-68
2023/03/08 02:15:33;;;;;;;16.10;11.45;;;;;;;-0.08;100.00;99914.38;4988921;28;20046;-69
2023/03/08 02:17:59;;;;;;;15.35;11.05;;;;;;;-0.05;100.00;99916.78;4994718;28;20053;-68
2023/03/08 02:20:34;;;;;;;17.67;11.63;;;;;;;0.00;100.00;99917.31;4985359;28;20046;-68
2023/03/08 02:23:21;;;;;;;15.15;10.30;;;;;;;0.05;100.00;99912.66;4982272;28;20489;-68
2023/03/08 02:25:57;;;;;;;16.52;11.52;;;;;;;0.06;100.00;99922.06;5001892;28;20419;-69
2023/03/08 02:28:25;;;;;;;17.20;11.45;;;;;;;0.07;100.00;99909.97;4981542;28;21193;-69
2023/03/08 02:30:53;;;;;;;16.50;11.57;;;;;;;0.09;100.00;99915.84;4990687;28;20044;-68
2023/03/08 02:33:19;;;;;;;21.25;11.82;;;;;;;0.04;100.00;99910.16;4982960;28;20062;-69
2023/03/08 02:35:46;;;;;;;23.42;13.50;;;;;;;-0.02;100.00;99909.66;4988916;28;20093;-69
2023/03/08 02:38:15;;;;;;;27.10;13.32;;;;;;;0.03;100.00;99911.13;4977318;28;20624;-69
2023/03/08 02:40:41;;;;;;;40.75;14.85;;;;;;;0.04;100.00;99908.44;4985051;28;20058;-69
2023/03/08 02:43:08;;;;;;;44.13;16.10;;;;;;;0.08;100.00;99907.31;4978639;28;20068;-68
2023/03/08 02:45:35;;;;;;;54.58;16.05;;;;;;;0.02;100.00;99909.44;4989137;28;20547;-69
2023/03/08 02:48:03;;;;;;;53.95;16.02;;;;;;;0.05;100.00;99897.19;4987298;28;20043;-68
2023/03/08 02:50:30;;;;;;;40.28;15.43;;;;;;;0.05;100.00;99891.22;4980404;28;20591;-68
2023/03/08 02:52:57;;;;;;;52.88;15.48;;;;;;;0.07;100.00;99885.00;4999985;28;20488;-69
2023/03/08 02:55:24;;;;;;;41.90;15.40;;;;;;;0.13;100.00;99881.19;4978733;28;21366;-69
2023/03/08 02:57:50;;;;;;;45.67;15.63;;;;;;;0.09;100.00;99872.84;4985787;28;20046;-69
2023/03/08 03:00:18;;;;;;;45.53;15.27;;;;;;;0.14;100.00;99870.78;4990223;28;20056;-68
2023/03/08 03:02:44;;;;;;;24.95;13.95;;;;;;;0.17;100.00;99877.50;4990558;28;20065;-68
2023/03/08 03:05:11;;;;;;;28.10;14.00;;;;;;;0.16;100.00;99886.16;4988064;28;20125;-69
2023/03/08 03:07:39;;;;;;;22.60;13.52;;;;;;;0.26;100.00;99884.63;4991475;28;20057;-69
2023/03/08 03:10:08;;;;;;;30.15;13.80;;;;;;;0.32;100.00;99875.63;4993745;28;20490;-69
2023/03/08 03:12:34;;;;;;;22.88;13.48;;;;;;;0.31;100.00;99879.13;4983600;28;20141;-69
2023/03/08 03:15:01;;;;;;;24.58;13.70;;;;;;;0.38;100.00;99883.78;4996556;28;20403;-69
2023/03/08 03:17:28;;;;;;;21.55;12.85;;;;;;;0.41;100.00;99881.91;4988829;28;20102;-69
2023/03/08 03:19:54;;;;;;;20.00;13.27;;;;;;;0.48;100.00;99876.25;5004685;28;20598;-69
2023/03/08 03:22:21;;;;;;;24.48;14.27;;;;;;;0.50;100.00;99874.38;4988869;28;20466;-69
2023/03/08 03:24:50;;;;;;;22.52;13.70;;;;;;;0.51;100.00;99870.88;4969307;28;20058;-69
2023/03/08 03:27:18;;;;;;;28.75;15.40;;;;;;;0.56;100.00;99878.28;4988327;28;20062;-69
2023/03/08 03:29:44;;;;;;;29.48;14.20;;;;;;;0.55;100.00;99885.22;4981961;28;20057;-69
2023/03/08 03:32:11;;;;;;;36.65;16.92;;;;;;;0.51;100.00;99882.94;4989418;28;20563;-69
2023/03/08 03:34:38;;;;;;;36.47;18.15;;;;;;;0.53;100.00;99879.34;4989601;28;20623;-69
2023/03/08 03:37:05;;;;;;;42.85;17.90;;;;;;;0.59;100.00;99878.09;4994433;28;20129;-69
2023/03/08 03:39:35;;;;;;;38.92;19.35;;;;;;;0.65;100.00;99876.81;4987889;28;20668;-69
2023/03/08 03:42:02;;;;;;;43.53;20.48;;;;;;;0.63;100.00;99873.53;4987738;28;20046;-69
2023/03/08 03:44:29;;;;;;;68.72;21.48;;;;;;;0.65;100.00;99857.03;4990011;28;20724;-69
2023/03/08 03:46:56;;;;;;;56.03;20.08;;;;;;;0.66;100.00;99857.84;4995700;28;20052;-69
2023/03/08 03:49:22;;;;;;;44.10;22.50;;;;;;;0.73;100.00;99844.41;4991694;28;20117;-69
2023/03/08 03:51:49;;;;;;;52.28;22.88;;;;;;;0.79;100.00;99838.00;4988415;28;20050;-69
2023/03/08 03:54:16;;;;;;;43.13;22.67;;;;;;;0.78;100.00;99850.09;4997803;28;20443;-69
2023/03/08 03:56:42;;;;;;;47.00;22.65;;;;;;;0.82;100.00;99845.50;4993696;28;20054;-69
2023/03/08 03:59:08;;;;;;;49.25;23.58;;;;;;;0.85;100.00;99823.81;4989120;28;20054;-69
2023/03/08 04:01:35;;;;;;;48.63;24.10;;;;;;;0.88;100.00;99829.59;4996818;28;20042;-70
2023/03/08 04:04:01;;;;;;;54.25;25.25;;;;;;;0.90;100.00;99824.31;4986564;28;20060;-69
2023/03/08 04:06:30;;;;;;;52.65;25.73;;;;;;;0.97;100.00;99818.59;4980032;28;20080;-70
2023/03/08 04:09:00;;;;;;;61.60;26.42;;;;;;;1.02;100.00;99814.88;4980421;28;20046;-70
2023/03/08 04:11:30;;;;;;;54.40;25.48;;;;;;;1.03;100.00;99817.34;4989272;28;20050;-70
2023/03/08 04:13:57;;;;;;;63.47;26.50;;;;;;;1.09;100.00;99814.31;4991643;28;20108;-69
2023/03/08 04:16:26;;;;;;;65.78;26.95;;;;;;;1.15;100.00;99818.22;4993736;28;20051;-70
2023/03/08 04:18:56;;;;;;;58.30;26.13;;;;;;;1.06;100.00;99821.44;4986496;28;20054;-69
2023/03/08 04:21:23;;;;;;;58.83;25.58;;;;;;;1.02;100.00;99815.72;4964304;28;20054;-70
2023/03/08 04:23:50;;;;;;;58.47;27.42;;;;;;;1.12;100.00;99821.03;4998654;28;20549;-70
2023/03/08 04:26:17;;;;;;;46.92;23.65;;;;;;;1.14;100.00;99821.75;4964183;28;20577;-70
2023/03/08 04:28:44;;;;;;;54.08;25.67;;;;;;;1.15;100.00;99813.06;4989877;28;20139;-70
2023/03/08 04:31:11;;;;;;;52.38;25.98;;;;;;;1.22;100.00;99808.28;4979895;28;20125;-70
2023/03/08 04:33:37;;;;;;;50.10;23.15;;;;;;;1.21;100.00;99804.03;4981838;28;20105;-70
2023/03/08 04:36:04;;;;;;;49.45;24.17;;;;;;;1.24;100.00;99799.47;4995765;28;20129;-70
2023/03/08 04:38:32;;;;;;;54.55;26.13;;;;;;;1.25;100.00;99789.97;4983943;28;20129;-70
2023/03/08 04:41:04;;;;;;;52.90;22.88;;;;;;;1.30;100.00;99800.78;4999632;28;20472;-70
2023/03/08 04:43:32;;;;;;;50.95;24.42;;;;;;;1.33;100.00;99796.25;4984077;28;20054;-70
2023/03/08 04:46:02;;;;;;;65.88;26.25;;;;;;;1.37;100.00;99789.91;4996736;28;20443;-70
2023/03/08 04:48:29;;;;;;;63.88;27.25;;;;;;;1.37;100.00;99787.31;4973681;28;20495;-70
2023/03/08 04:50:59;;;;;;;61.13;26.30;;;;;;;1.41;100.00;99784.50;4998959;28;20455;-70
2023/03/08 04:53:27;;;;;;;72.32;26.27;;;;;;;1.36;100.00;99775.31;4990129;28;20058;-69
2023/03/08 04:55:54;;;;;;;58.35;26.60;;;;;;;1.38;100.00;99773.44;4985668;28;20054;-69
2023/03/08 04:58:21;;;;;;;54.85;25.10;;;;;;;1.39;100.00;99769.09;4989771;28;20046;-69
2023/03/08 05:00:47;;;;;;;59.20;26.77;;;;;;;1.42;100.00;99761.13;4984880;28;20665;-69
2023/03/08 05:03:14;;;;;;;49.83;23.95;;;;;;;1.42;100.00;99745.63;4993506;28;20049;-69
2023/03/08 05:05:49;;;;;;;54.10;24.02;;;;;;;1.48;100.00;99742.56;4981904;28;20056;-69
2023/03/08 05:08:16;;;;;;;60.72;25.98;;;;;;;1.46;100.00;99736.69;4989692;28;20054;-69
2023/03/08 05:11:01;;;;;;;47.80;22.67;;;;;;;1.51;100.00;99731.19;4983591;28;20058;-69
2023/03/08 05:13:31;;;;;;;53.25;25.23;;;;;;;1.49;100.00;99720.13;4993449;28;20054;-68
2023/03/08 05:15:58;;;;;;;60.10;24.77;;;;;;;1.44;100.00;99717.09;4982291;28;20065;-69
2023/03/08 05:18:25;;;;;;;58.53;26.23;;;;;;;1.43;100.00;99729.19;4984771;28;20611;-69
2023/03/08 05:20:55;;;;;;;54.05;24.52;;;;;;;1.44;100.00;99717.91;4987484;28;20058;-69
2023/03/08 05:23:24;;;;;;;68.43;28.98;;;;;;;1.43;100.00;99718.84;4973110;28;20061;-69
2023/03/08 05:25:55;;;;;;;57.53;28.35;;;;;;;1.41;100.00;99715.53;4987982;28;20101;-69
2023/03/08 05:28:24;;;;;;;58.60;26.02;;;;;;;1.40;100.00;99705.34;4979977;28;20430;-69
2023/03/08 05:30:59;;;;;;;50.63;25.40;;;;;;;1.43;100.00;99705.94;4983833;28;20054;-69
2023/03/08 05:33:26;;;;;;;50.03;25.00;;;;;;;1.43;100.00;99690.44;4982056;28;20054;-69
2023/03/08 05:35:56;;;;;;;53.00;24.13;;;;;;;1.46;100.00;99686.78;4994723;28;20558;-69
2023/03/08 05:38:23;;;;;;;59.03;27.67;;;;;;;1.50;100.00;99693.38;4999437;28;20064;-69
2023/03/08 05:40:49;;;;;;;56.13;25.70;;;;;;;1.50;100.00;99686.44;4989291;28;20426;-69
2023/03/08 05:43:17;;;;;;;55.33;25.77;;;;;;;1.49;100.00;99682.22;4991940;28;20046;-69
2023/03/08 05:45:53;;;;;;;51.55;25.75;;;;;;;1.53;100.00;99681.03;4992281;28;20518;-69
2023/03/08 05:48:19;;;;;;;55.30;25.30;;;;;;;1.51;100.00;99675.16;4992043;28;20054;-69
2023/03/08 05:50:46;;;;;;;59.42;24.02;;;;;;;1.46;100.00;99669.50;4983692;28;20046;-69
2023/03/08 05:53:12;;;;;;;60.75;24.45;;;;;;;1.45;100.00;99665.28;4989509;28;20058;-69
2023/03/08 05:55:39;;;;;;;80.70;27.02;;;;;;;1.42;100.00;99660.34;5004411;28;20582;-69
2023/03/08 05:58:05;;;;;;;57.17;25.63;;;;;;;1.46;100.00;99658.34;4984765;28;20141;-69
2023/03/08 06:00:32;;;;;;;59.85;26.13;;;;;;;1.41;100.00;99652.69;4989794;28;20070;-68
2023/03/08 06:02:59;;;;;;;65.32;26.23;;;;;;;1.41;100.00;99637.19;4988482;28;20137;-69
2023/03/08 06:05:26;;;;;;;54.88;24.50;;;;;;;1.38;100.00;99633.91;4994344;28;20197;-68
2023/03/08 06:07:52;;;;;;;48.67;22.92;;;;;;;1.46;100.00;99627.34;4983407;28;20058;-69
2023/03/08 06:10:19;;;;;;;56.33;23.30;;;;;;;1.42;100.00;99629.34;4969953;28;20061;-69
2023/03/08 06:12:45;;;;;;;56.90;24.48;;;;;;;1.42;100.00;99631.91;4988153;28;20060;-69
2023/03/08 06:15:12;;;;;;;52.50;22.73;;;;;;;1.44;100.00;99624.06;4993267;28;20077;-69
2023/03/08 06:17:39;;;;;;;48.00;22.92;;;;;;;1.48;100.00;99621.09;4992694;28;20050;-68
2023/03/08 06:20:07;;;;;;;50.80;21.52;;;;;;;1.45;100.00;99618.78;4984483;28;20054;-69
2023/03/08 06:22:34;;;;;;;48.28;21.67;;;;;;;1.47;100.00;99623.81;4987637;28;20050;-69
2023/03/08 06:25:01;;;;;;;45.28;22.00;;;;;;;1.48;100.00;99621.09;4986286;28;20072;-69
2023/03/08 06:27:27;;;;;;;52.95;23.83;;;;;;;1.48;100.00;99617.72;4991825;28;20051;-68
2023/03/08 06:29:54;;;;;;;41.42;20.98;;;;;;;1.45;100.00;99621.38;4998324;28;20058;-69
2023/03/08 06:32:21;;;;;;;44.03;21.13;;;;;;;1.44;100.00;99621.47;4986564;28;20140;-69
2023/03/08 06:34:47;;;;;;;39.67;20.83;;;;;;;1.44;100.00;99619.69;4998448;28;20054;-70
2023/03/08 06:37:14;;;;;;;41.83;21.88;;;;;;;1.42;100.00;99624.16;4979375;28;20128;-70
2023/03/08 06:39:41;;;;;;;47.03;20.83;;;;;;;1.41;100.00;99622.50;4990470;28;20060;-69
2023/03/08 06:42:07;;;;;;;43.13;19.88;;;;;;;1.39;100.00;99616.63;4966252;28;20042;-69
2023/03/08 06:44:34;;;;;;;52.17;20.95;;;;;;;1.36;100.00;99611.72;4996363;28;20077;-69
2023/03/08 06:47:00;;;;;;;39.83;20.70;;;;;;;1.38;100.00;99615.81;4990068;28;20066;-69
2023/03/08 06:49:27;;;;;;;45.67;22.25;;;;;;;1.43;100.00;99615.50;4987431;28;20057;-69
2023/03/08 06:51:54;;;;;;;46.88;22.35;;;;;;;1.45;100.00;99608.44;4984267;28;20491;-69
2023/03/08 06:54:20;;;;;;;41.50;21.48;;;;;;;1.46;100.00;99614.44;4985584;28;20411;-69
2023/03/08 06:56:47;;;;;;;40.95;20.63;;;;;;;1.51;100.00;99612.28;4993516;28;20049;-68
2023/03/08 06:59:14;;;;;;;43.67;20.55;;;;;;;1.55;100.00;99626.66;4997867;28;20541;-68
2023/03/08 07:01:40;;;;;;;44.60;21.98;;;;;;;1.58;100.00;99614.28;5004187;28;20049;-68
2023/03/08 07:04:07;;;;;;;39.53;18.55;;;;;;;1.58;100.00;99618.63;5001924;28;20507;-68
2023/03/08 07:06:33;;;;;;;38.38;19.83;;;;;;;1.59;100.00;99615.13;4978987;28;20050;-68
2023/03/08 07:09:00;;;;;;;42.67;21.65;;;;;;;1.61;100.00;99613.25;4987087;28;20054;-68
2023/03/08 07:11:28;;;;;;;49.45;21.52;;;;;;;1.60;100.00;99600.44;4996405;28;20093;-68
2023/03/08 07:13:56;;;;;;;41.55;21.25;;;;;;;1.62;100.00;99603.72;4994768;28;20341;-68
2023/03/08 07:16:23;;;;;;;42.13;21.13;;;;;;;1.62;100.00;99601.13;4988470;28;20059;-68
2023/03/08 07:18:49;;;;;;;43.55;20.90;;;;;;;1.63;100.00;99601.03;4979767;28;20054;-68
2023/03/08 07:21:16;;;;;;;42.38;21.50;;;;;;;1.66;100.00;99605.13;4983416;28;20678;-68
2023/03/08 07:23:43;;;;;;;40.00;19.27;;;;;;;1.65;100.00;99604.31;4965186;28;20099;-68
2023/03/08 07:26:09;;;;;;;42.67;21.73;;;;;;;1.65;100.00;99603.50;4989229;28;20057;-69
2023/03/08 07:28:36;;;;;;;50.17;22.63;;;;;;;1.66;100.00;99600.78;4976045;28;20157;-68
2023/03/08 07:31:03;;;;;;;48.00;22.35;;;;;;;1.67;100.00;99594.69;4992886;28;20076;-69
2023/03/08 07:33:30;;;;;;;44.10;20.65;;;;;;;1.68;100.00;99592.91;4995489;28;20085;-69
2023/03/08 07:36:00;;;;;;;42.92;20.85;;;;;;;1.71;100.00;99600.44;4977801;28;20054;-69
2023/03/08 07:38:27;;;;;;;46.65;22.40;;;;;;;1.69;100.00;99589.41;5000103;28;20054;-68
2023/03/08 07:40:55;;;;;;;49.72;23.88;;;;;;;1.72;100.00;99586.56;4985443;28;20423;-68
2023/03/08 07:43:22;;;;;;;47.88;23.52;;;;;;;1.76;100.00;99582.78;4987722;28;20141;-68
2023/03/08 07:45:48;;;;;;;48.25;22.33;;;;;;;1.73;100.00;99581.25;4983978;28;20459;-68
2023/03/08 07:48:15;;;;;;;49.55;23.40;;;;;;;1.76;100.00;99580.19;4989409;28;20623;-68
2023/03/08 07:50:41;;;;;;;50.30;23.85;;;;;;;1.80;100.00;99573.03;4984438;28;20056;-67
2023/03/08 07:53:08;;;;;;;55.42;25.20;;;;;;;1.85;100.00;99573.50;4980619;28;20061;-67
2023/03/08 07:55:36;;;;;;;52.85;23.58;;;;;;;1.88;100.00;99568.91;4985847;28;20054;-67
2023/03/08 07:58:03;;;;;;;53.13;24.50;;;;;;;1.90;100.00;99568.75;4993500;28;20049;-67
2023/03/08 08:00:30;;;;;;;52.55;23.20;;;;;;;1.91;100.00;99565.25;4987371;28;20567;-67
2023/03/08 08:02:56;;;;;;;51.15;23.90;;;;;;;1.92;100.00;99565.13;4975839;28;20881;-67
2023/03/08 08:05:23;;;;;;;50.03;24.17;;;;;;;1.96;100.00;99558.78;4986366;28;20077;-68
2023/03/08 08:07:50;;;;;;;51.30;23.45;;;;;;;2.03;100.00;99560.88;4989264;28;20113;-69
2023/03/08 08:10:17;;;;;;;53.38;24.77;;;;;;;2.03;100.00;99559.09;4983825;28;20074;-69
2023/03/08 08:12:43;;;;;;;50.97;23.58;;;;;;;2.05;100.00;99558.97;4993796;28;20408;-67
2023/03/08 08:15:10;;;;;;;48.47;23.30;;;;;;;2.11;100.00;99553.31;4979047;28;20050;-68
2023/03/08 08:17:37;;;;;;;46.85;21.48;;;;;;;2.17;100.00;99547.63;4966152;28;20149;-69
2023/03/08 08:20:06;;;;;;;50.58;24.23;;;;;;;2.20;100.00;99542.22;4980821;28;20050;-68
2023/03/08 08:22:35;;;;;;;45.35;21.23;;;;;;;2.26;100.00;99540.91;4987653;28;20050;-69
2023/03/08 08:25:04;;;;;;;46.17;22.92;;;;;;;2.30;100.00;99534.53;4987558;28;20265;-67
2023/03/08 08:27:30;;;;;;;45.30;22.88;;;;;;;2.29;100.00;99528.53;4984216;28;20575;-67
2023/03/08 08:29:58;;;;;;;41.92;21.65;;;;;;;2.31;100.00;99524.06;4981462;28;20065;-67
2023/03/08 08:32:25;;;;;;;44.35;22.23;;;;;;;2.32;100.00;99528.28;4975218;28;20069;-67
2023/03/08 08:34:51;;;;;;;40.78;21.33;;;;;;;2.35;100.00;99530.63;4987795;28;20138;-69
2023/03/08 08:37:18;;;;;;;43.63;21.50;;;;;;;2.40;100.00;99521.69;4985770;28;20065;-67
2023/03/08 08:39:45;;;;;;;39.10;20.35;;;;;;;2.48;100.00;99521.84;4993960;28;20428;-67
2023/03/08 08:42:11;;;;;;;41.10;20.77;;;;;;;2.50;100.00;99525.94;4987908;28;20042;-67
2023/03/08 08:44:38;;;;;;;38.78;19.30;;;;;;;2.54;100.00;99522.16;4976292;28;20062;-67
2023/03/08 08:47:04;;;;;;;37.03;18.52;;;;;;;2.62;100.00;99511.19;4992253;28;20768;-67
2023/03/08 08:49:31;;;;;;;32.10;15.88;;;;;;;2.60;100.00;99513.06;4980446;28;20062;-67
2023/03/08 08:51:57;;;;;;;31.35;15.93;;;;;;;2.66;100.00;99504.78;4985717;28;20056;-67
2023/03/08 08:54:24;;;;;;;35.53;17.33;;;;;;;2.77;100.00;99504.72;4981632;28;20418;-66
2023/03/08 08:56:50;;;;;;;33.92;17.40;;;;;;;2.79;100.00;99496.03;4990876;28;20550;-67
2023/03/08 08:59:17;;;;;;;35.90;18.00;;;;;;;2.79;100.00;99499.41;4975749;28;20051;-67
2023/03/08 09:01:44;;;;;;;31.00;16.75;;;;;;;2.83;100.00;99497.41;4987342;28;20057;-67
2023/03/08 09:04:12;;;;;;;29.33;15.88;;;;;;;2.86;100.00;99497.13;4990998;28;20073;-67
2023/03/08 09:06:39;;;;;;;30.13;15.90;;;;;;;2.92;100.00;99494.00;4992800;28;20419;-67
2023/03/08 09:09:06;;;;;;;27.02;15.30;;;;;;;2.92;100.00;99489.69;4994691;28;20050;-69
2023/03/08 09:11:33;;;;;;;27.95;16.30;;;;;;;2.90;100.00;99490.72;4987925;28;20061;-67
2023/03/08 09:14:14;;;;;;;28.38;16.50;;;;;;;2.92;100.00;99494.84;4986377;28;20056;-67
2023/03/08 09:16:40;;;;;;;22.92;13.15;;;;;;;3.01;100.00;99490.66;4994437;28;20058;-67
2023/03/08 09:19:07;;;;;;;25.55;13.52;;;;;;;3.00;100.00;99489.03;4993386;28;20058;-67
2023/03/08 09:21:34;;;;;;;23.83;12.48;;;;;;;3.02;100.00;99481.09;4994170;28;20097;-67
2023/03/08 09:24:03;;;;;;;22.00;12.02;;;;;;;3.07;100.00;99476.34;4997667;28;20144;-67
2023/03/08 09:26:31;;;;;;;18.58;10.63;;;;;;;3.06;100.00;99472.13;4994279;28;20774;-67
2023/03/08 09:29:03;;;;;;;18.90;10.05;;;;;;;3.10;100.00;99479.50;4988962;28;20133;-67
2023/03/08 09:31:31;;;;;;;19.00;10.00;;;;;;;3.16;100.00;99471.22;4998887;28;20106;-67
2023/03/08 09:33:58;;;;;;;16.00;9.43;;;;;;;3.11;100.00;99462.19;4995733;28;20046;-67
2023/03/08 09:36:27;;;;;;;15.68;9.27;;;;;;;3.12;100.00;99462.06;4999380;28;20487;-67
2023/03/08 09:38:55;;;;;;;16.40;9.10;;;;;;;3.17;100.00;99467.69;4993931;28;20049;-67
2023/03/08 09:41:39;;;;;;;18.33;8.80;;;;;;;3.21;100.00;99470.00;4987583;28;20058;-67
2023/03/08 09:44:22;;;;;;;17.67;9.52;;;;;;;3.14;100.00;99456.75;4997916;28;20049;-67
2023/03/08 09:47:00;;;;;;;18.08;9.35;;;;;;;3.20;100.00;99451.03;4984177;28;20408;-67
2023/03/08 09:49:29;;;;;;;16.45;9.35;;;;;;;3.29;100.00;99446.81;4990072;28;20109;-67
2023/03/08 09:52:16;;;;;;;;;;;;;;;3.35;100.00;99436.75;4994082;28;20054;-68
2023/03/08 09:54:44;;;;;;;14.98;8.02;;;;;;;3.43;100.00;99433.50;4985535;28;20717;-67
2023/03/08 09:57:23;;;;;;;13.80;7.95;;;;;;;3.55;100.00;99427.22;4990067;28;20490;-67
2023/03/08 09:59:55;;;;;;;14.02;9.13;;;;;;;3.65;100.00;99418.63;5000739;28;20100;-68
2023/03/08 10:03:05;;;;;;;14.13;7.90;;;;;;;3.73;100.00;99416.19;4991854;28;20418;-68
2023/03/08 10:05:58;;;;;;;18.40;9.55;;;;;;;3.79;100.00;99420.00;4949562;28;20051;-67
2023/03/08 10:08:32;;;;;;;15.98;9.20;;;;;;;3.80;100.00;99417.25;4970064;28;20051;-68
2023/03/08 10:11:03;;;;;;;16.40;9.00;;;;;;;3.84;100.00;99416.03;4989639;28;20054;-68
2023/03/08 10:13:37;;;;;;;18.77;9.50;;;;;;;3.84;100.00;99408.25;4994159;28;20278;-67
2023/03/08 10:16:23;;;;;;;16.13;10.00;;;;;;;3.90;100.00;99414.66;4976982;28;20050;-68
2023/03/08 10:18:55;;;;;;;16.45;9.73;;;;;;;3.97;100.00;99402.78;4989311;28;20062;-67
2023/03/08 10:21:24;;;;;;;16.25;9.05;;;;;;;3.95;100.00;99412.47;4990409;28;20423;-68
2023/03/08 10:24:05;;;;;;;15.02;9.43;;;;;;;4.05;100.00;99405.47;4984854;28;20058;-68
2023/03/08 10:26:33;;;;;;;16.13;9.63;;;;;;;4.17;100.00;99400.97;4981303;28;20145;-68
2023/03/08 10:28:59;;;;;;;16.52;9.20;;;;;;;4.17;100.00;99411.34;4996579;28;20561;-68
2023/03/08 10:31:28;;;;;;;15.95;9.40;;;;;;;4.21;100.00;99410.09;4992100;28;20050;-68
2023/03/08 10:34:02;;;;;;;14.73;8.85;;;;;;;4.27;100.00;99406.97;4998345;28;20093;-68
2023/03/08 10:36:28;;;;;;;16.95;9.45;;;;;;;4.33;100.00;99409.00;4997684;28;20628;-68
2023/03/08 10:39:10;;;;;;;15.38;8.50;;;;;;;4.40;100.00;99408.44;4977938;28;20053;-68
2023/03/08 10:41:51;;;;;;;15.73;9.48;;;;;;;4.46;100.00;99402.66;4988357;28;20054;-68
2023/03/08 10:44:42;;;;;;;18.60;9.13;;;;;;;4.49;100.00;99397.19;4981459;28;20058;-68
2023/03/08 10:47:31;;;;;;;14.32;8.80;;;;;;;4.63;100.00;99393.31;4996897;28;20077;-68
2023/03/08 10:50:19;;;;;;;15.90;7.32;;;;;;;4.68;100.00;99388.50;4961820;28;20046;-67
2023/03/08 10:52:48;;;;;;;12.60;7.45;;;;;;;4.64;100.00;99393.16;4979206;28;20049;-68
2023/03/08 10:55:24;;;;;;;14.55;7.90;;;;;;;4.65;100.00;99384.41;4977176;28;20061;-67
2023/03/08 10:57:54;;;;;;;15.25;7.88;;;;;;;4.80;100.00;99386.53;4978232;28;20051;-68
2023/03/08 11:00:24;;;;;;;15.55;8.10;;;;;;;4.88;100.00;99373.63;4986068;28;20145;-68
2023/03/08 11:03:06;;;;;;;11.43;6.85;;;;;;;4.87;100.00;99369.41;4998283;28;20729;-68
2023/03/08 11:05:32;;;;;;;12.43;6.28;;;;;;;4.97;100.00;99367.56;4992892;28;20062;-68
2023/03/08 11:07:59;;;;;;;10.85;6.43;;;;;;;5.08;100.00;99369.16;4983906;28;20463;-68
2023/03/08 11:10:28;;;;;;;11.48;6.45;;;;;;;5.06;100.00;99360.69;4990465;28;20422;-68
2023/03/08 11:13:22;;;;;;;9.30;5.90;;;;;;;5.07;100.00;99357.94;4984697;28;20053;-68
2023/03/08 11:16:04;;;;;;;15.38;7.20;;;;;;;5.10;100.00;99362.84;4989990;28;20108;-68
2023/03/08 11:19:02;;;;;;;10.85;6.20;;;;;;;5.12;100.00;99370.50;4977183;28;20169;-68
2023/03/08 11:21:42;;;;;;;14.27;6.95;;;;;;;5.08;100.00;99374.38;4983150;28;20057;-69
2023/03/08 11:24:32;;;;;;;11.00;6.10;;;;;;;5.09;100.00;99378.56;4998490;28;20112;-68
2023/03/08 11:27:15;;;;;;;11.23;6.20;;;;;;;5.04;100.00;99383.41;5004520;28;20053;-68
2023/03/08 11:30:14;;;;;;;13.43;7.13;;;;;;;5.13;100.00;99385.13;4983846;28;20109;-68